Time;durP1;ratioP1;P1;durP2;ratioP2;P2;SDS_P1;SDS_P2;PMS_P1;PMS_P2;Temp;Humidity;BMP_temperature;BMP_pressure;BME280_temperature;BME280_humidity;BME280_pressure;Samples;Min_cycle;Max_cycle;Signal;HPM_P1;HPM_P2
2021/12/28 00:00:15;;;;;;;68.68;49.67;;;17.70;61.30;;;;;;4968292;28;90984;-72
2021/12/28 00:02:45;;;;;;;65.35;49.80;;;17.70;61.40;;;;;;4969747;28;90217;-73
2021/12/28 00:05:12;;;;;;;66.70;49.92;;;17.70;61.40;;;;;;4967403;28;89513;-72
2021/12/28 00:07:37;;;;;;;66.05;49.67;;;17.70;61.50;;;;;;4972614;28;90137;-73
2021/12/28 00:10:05;;;;;;;65.60;49.60;;;17.70;61.30;;;;;;4970225;28;91915;-73
2021/12/28 00:12:33;;;;;;;65.72;49.45;;;17.70;61.40;;;;;;4967259;28;89828;-72
2021/12/28 00:15:06;;;;;;;66.55;49.70;;;17.70;61.40;;;;;;4968021;28;89170;-72
2021/12/28 00:20:18;;;;;;;67.30;49.90;;;17.70;61.50;;;;;;4971795;28;90097;-72
2021/12/28 00:22:44;;;;;;;64.30;49.60;;;17.70;61.50;;;;;;4972283;28;90534;-73
2021/12/28 00:25:11;;;;;;;68.97;49.90;;;17.60;61.50;;;;;;4973174;28;89925;-73
2021/12/28 00:27:38;;;;;;;63.67;49.28;;;17.60;61.60;;;;;;4974510;28;92483;-72
2021/12/28 00:30:04;;;;;;;65.20;49.53;;;17.60;61.50;;;;;;4964791;28;92203;-72
2021/12/28 00:32:30;;;;;;;64.95;49.42;;;17.60;61.60;;;;;;4973416;28;90431;-72
2021/12/28 00:34:55;;;;;;;64.90;49.55;;;17.60;61.60;;;;;;4963982;28;90039;-73
2021/12/28 00:37:21;;;;;;;64.85;49.30;;;17.60;61.50;;;;;;4968542;28;90876;-72
2021/12/28 00:39:47;;;;;;;67.10;50.08;;;17.50;61.70;;;;;;4965316;28;95885;-73
2021/12/28 00:42:14;;;;;;;63.47;49.50;;;17.50;61.60;;;;;;4957964;28;89470;-72
2021/12/28 00:44:39;;;;;;;65.55;49.83;;;17.50;61.70;;;;;;4967464;28;90278;-73
2021/12/28 00:47:05;;;;;;;64.30;49.47;;;17.50;61.80;;;;;;4972125;28;90377;-73
2021/12/28 00:49:31;;;;;;;66.25;49.63;;;17.50;61.80;;;;;;4969173;28;90654;-73
2021/12/28 00:51:56;;;;;;;64.68;49.65;;;17.50;61.70;;;;;;4971571;28;90572;-72
2021/12/28 00:54:22;;;;;;;66.38;49.78;;;17.50;61.70;;;;;;4973317;28;91203;-73
2021/12/28 00:56:48;;;;;;;64.80;49.65;;;17.50;61.80;;;;;;4967849;28;90398;-73
2021/12/28 00:59:17;;;;;;;63.92;49.85;;;17.50;61.80;;;;;;4969157;28;91340;-73
2021/12/28 01:01:42;;;;;;;66.00;49.67;;;17.50;61.80;;;;;;4968855;28;90115;-73
2021/12/28 01:04:08;;;;;;;62.90;49.38;;;17.50;61.80;;;;;;4972768;28;89662;-73
2021/12/28 01:06:43;;;;;;;55.45;44.27;;;17.50;61.70;;;;;;1553581;28;10108787;-73
2021/12/28 01:09:09;;;;;;;62.72;49.25;;;17.50;61.80;;;;;;3919681;28;10092026;-73
2021/12/28 01:11:35;;;;;;;62.72;49.20;;;17.40;61.90;;;;;;4950457;28;91144;-73
2021/12/28 01:14:00;;;;;;;67.35;49.63;;;17.40;61.90;;;;;;4947619;28;91144;-73
2021/12/28 01:16:26;;;;;;;64.88;49.70;;;17.50;61.90;;;;;;4950902;28;89953;-73
2021/12/28 01:18:52;;;;;;;65.75;49.25;;;17.40;61.80;;;;;;4952500;28;90509;-72
2021/12/28 01:21:19;;;;;;;66.53;49.63;;;17.40;61.80;;;;;;4949792;28;90648;-73
2021/12/28 01:23:44;;;;;;;65.72;49.80;;;17.40;61.80;;;;;;4950278;28;90039;-73
2021/12/28 01:26:10;;;;;;;64.10;49.53;;;17.40;61.90;;;;;;4953312;28;91059;-73
2021/12/28 01:28:36;;;;;;;64.95;49.35;;;17.40;61.80;;;;;;4947860;28;89813;-73
2021/12/28 01:31:03;;;;;;;64.47;49.53;;;17.40;61.80;;;;;;4946213;28;90397;-73
2021/12/28 01:33:28;;;;;;;64.03;49.17;;;17.40;61.80;;;;;;4950758;28;89845;-73
2021/12/28 01:35:54;;;;;;;66.55;49.20;;;17.40;61.90;;;;;;4944752;28;91714;-73
2021/12/28 01:38:20;;;;;;;65.25;49.15;;;17.40;61.90;;;;;;4950339;28;90512;-73
2021/12/28 01:40:45;;;;;;;63.83;49.25;;;17.40;62.00;;;;;;4950515;28;90511;-73
2021/12/28 01:43:18;;;;;;;67.38;49.85;;;17.40;61.90;;;;;;4954370;28;90923;-73
2021/12/28 01:45:57;;;;;;;63.65;49.22;;;17.40;61.80;;;;;;4951477;28;90297;-73
2021/12/28 01:48:31;;;;;;;64.13;49.08;;;17.30;61.80;;;;;;4953330;28;92387;-73
2021/12/28 01:51:01;;;;;;;65.15;49.47;;;17.30;61.90;;;;;;4941765;28;91507;-73
2021/12/28 01:53:28;;;;;;;64.68;49.35;;;17.30;62.00;;;;;;4943039;28;89130;-73
2021/12/28 01:55:56;;;;;;;64.60;49.22;;;17.30;62.00;;;;;;4953274;28;95262;-73
2021/12/28 01:58:22;;;;;;;64.28;49.72;;;17.40;62.70;;;;;;4953937;28;91156;-73
2021/12/28 02:00:49;;;;;;;62.65;49.03;;;17.30;61.90;;;;;;4955741;28;91287;-73
2021/12/28 02:03:18;;;;;;;65.03;49.13;;;17.40;62.10;;;;;;4954251;28;90968;-73
2021/12/28 02:05:45;;;;;;;62.80;49.03;;;17.30;62.00;;;;;;4958061;28;94618;-73
2021/12/28 02:08:15;;;;;;;62.53;49.03;;;17.30;62.00;;;;;;4952608;28;91799;-73
2021/12/28 02:10:43;;;;;;;63.72;49.13;;;17.30;62.00;;;;;;4954033;28;95816;-73
2021/12/28 02:13:09;;;;;;;62.95;49.22;;;17.30;62.00;;;;;;4951405;28;89553;-72
2021/12/28 02:15:36;;;;;;;62.92;49.22;;;17.30;62.10;;;;;;4955694;28;95161;-73
2021/12/28 02:18:07;;;;;;;63.42;49.08;;;17.30;62.00;;;;;;4944231;28;91289;-73
2021/12/28 02:20:33;;;;;;;66.43;49.30;;;17.30;62.00;;;;;;4954391;28;90021;-72
2021/12/28 02:22:58;;;;;;;62.58;49.15;;;17.30;62.00;;;;;;4955087;28;89743;-73
2021/12/28 02:25:24;;;;;;;64.50;48.85;;;17.30;62.00;;;;;;4957114;28;93241;-73
2021/12/28 02:27:50;;;;;;;63.20;49.20;;;17.30;62.10;;;;;;4949554;28;90887;-72
2021/12/28 02:30:19;;;;;;;63.33;48.80;;;17.30;62.10;;;;;;4953400;28;90881;-73
2021/12/28 02:32:47;;;;;;;62.58;49.30;;;17.30;62.20;;;;;;4952447;28;91011;-73
2021/12/28 02:35:17;;;;;;;65.13;49.17;;;17.30;62.00;;;;;;4954158;28;91570;-72
2021/12/28 02:37:43;;;;;;;63.83;49.03;;;17.20;61.90;;;;;;4955875;28;91675;-73
2021/12/28 02:40:16;;;;;;;64.32;49.33;;;17.20;62.20;;;;;;4952137;28;90660;-72
2021/12/28 02:42:42;;;;;;;61.53;48.53;;;17.20;62.10;;;;;;4951950;28;89112;-72
2021/12/28 02:45:12;;;;;;;64.90;48.75;;;17.20;62.10;;;;;;4952074;28;89966;-73
2021/12/28 02:47:39;;;;;;;63.08;48.67;;;17.20;62.20;;;;;;4956419;28;90948;-73
2021/12/28 02:50:15;;;;;;;62.80;48.95;;;17.20;62.10;;;;;;4953840;28;90924;-73
2021/12/28 02:52:41;;;;;;;63.30;49.22;;;17.20;62.20;;;;;;4950310;28;89486;-73
2021/12/28 02:55:09;;;;;;;61.67;48.72;;;17.20;62.10;;;;;;4954736;28;90462;-73
2021/12/28 02:57:35;;;;;;;63.15;48.45;;;17.20;62.10;;;;;;4945851;28;92832;-73
2021/12/28 03:00:03;;;;;;;63.42;48.83;;;17.20;62.10;;;;;;4946916;28;91209;-73
2021/12/28 03:02:28;;;;;;;63.17;49.25;;;17.20;62.30;;;;;;4950272;28;93139;-73
2021/12/28 03:04:54;;;;;;;62.38;48.78;;;17.20;62.20;;;;;;4944512;28;90520;-73
2021/12/28 03:07:20;;;;;;;63.22;48.67;;;17.10;62.30;;;;;;4945503;28;89223;-73
2021/12/28 03:09:45;;;;;;;63.38;48.92;;;17.20;62.30;;;;;;4959959;28;90190;-73
2021/12/28 03:12:12;;;;;;;62.05;48.55;;;17.10;62.30;;;;;;4946211;28;90418;-73
2021/12/28 03:14:38;;;;;;;63.80;48.85;;;17.20;63.00;;;;;;4948376;28;92395;-73
2021/12/28 03:17:05;;;;;;;63.50;49.08;;;17.10;62.20;;;;;;4948065;28;91955;-72
2021/12/28 03:19:32;;;;;;;62.30;48.47;;;17.20;62.30;;;;;;4958023;28;89928;-73
2021/12/28 03:22:00;;;;;;;63.00;48.75;;;17.10;62.30;;;;;;4946125;28;94791;-73
2021/12/28 03:24:27;;;;;;;62.88;48.95;;;17.10;62.20;;;;;;4946371;28;89941;-73
2021/12/28 03:26:53;;;;;;;62.85;48.75;;;17.10;62.30;;;;;;4948969;28;90180;-72
2021/12/28 03:29:20;;;;;;;64.20;48.72;;;17.10;62.30;;;;;;4946919;28;89850;-72
2021/12/28 03:31:47;;;;;;;61.83;48.45;;;17.10;62.40;;;;;;4947863;28;89326;-72
2021/12/28 03:34:12;;;;;;;63.25;48.58;;;17.10;62.50;;;;;;4948228;28;90839;-74
2021/12/28 03:36:38;;;;;;;61.47;48.65;;;17.10;62.40;;;;;;4948734;28;90848;-73
2021/12/28 03:39:04;;;;;;;62.13;48.55;;;17.10;63.10;;;;;;4960315;28;90909;-72
2021/12/28 03:41:31;;;;;;;61.50;48.38;;;17.10;62.30;;;;;;4950473;28;93346;-73
2021/12/28 03:43:57;;;;;;;62.28;48.70;;;17.10;62.30;;;;;;4945673;28;92523;-73
2021/12/28 03:46:25;;;;;;;63.72;48.80;;;17.10;62.40;;;;;;4954477;28;90126;-72
2021/12/28 03:48:52;;;;;;;61.78;48.55;;;17.10;62.50;;;;;;4951219;28;90431;-72
2021/12/28 03:51:18;;;;;;;62.20;49.15;;;17.10;62.40;;;;;;4950940;28;90186;-72
2021/12/28 03:53:46;;;;;;;62.42;48.65;;;17.10;62.50;;;;;;4951436;28;91763;-73
2021/12/28 03:56:12;;;;;;;62.33;48.38;;;17.10;62.50;;;;;;4951237;28;91285;-73
2021/12/28 03:58:40;;;;;;;63.05;49.03;;;17.10;62.40;;;;;;4948968;28;91224;-73
2021/12/28 04:01:09;;;;;;;62.25;48.85;;;17.00;62.40;;;;;;4958113;28;89361;-72
2021/12/28 04:03:34;;;;;;;61.85;48.45;;;17.00;62.50;;;;;;4953644;28;91876;-73
2021/12/28 04:06:07;;;;;;;61.88;48.83;;;17.00;62.50;;;;;;4946021;28;90872;-73
2021/12/28 04:08:33;;;;;;;62.25;48.95;;;17.00;62.60;;;;;;4949266;28;90739;-73
2021/12/28 04:11:14;;;;;;;62.05;48.75;;;17.00;62.60;;;;;;4954016;28;90245;-73
2021/12/28 04:13:42;;;;;;;61.17;48.72;;;17.00;62.60;;;;;;4951615;28;90188;-73
2021/12/28 04:16:07;;;;;;;62.88;48.75;;;17.00;62.60;;;;;;4951930;28;90142;-73
2021/12/28 04:18:33;;;;;;;65.13;48.83;;;17.00;62.60;;;;;;4953450;28;89427;-73
2021/12/28 04:20:59;;;;;;;62.47;48.47;;;17.00;62.60;;;;;;4949239;28;89280;-73
2021/12/28 04:23:24;;;;;;;61.20;48.50;;;17.00;62.60;;;;;;4951032;28;96657;-73
2021/12/28 04:25:50;;;;;;;62.00;48.70;;;17.00;62.70;;;;;;4954399;28;89869;-73
2021/12/28 04:28:16;;;;;;;61.13;48.53;;;17.00;62.60;;;;;;4945323;28;91312;-73
2021/12/28 04:30:41;;;;;;;62.38;48.72;;;17.00;62.60;;;;;;4948198;28;90091;-73
2021/12/28 04:33:07;;;;;;;62.13;48.60;;;17.00;62.80;;;;;;4951775;28;90312;-73
2021/12/28 04:35:33;;;;;;;61.17;48.50;;;17.00;62.70;;;;;;4946017;28;89893;-73
2021/12/28 04:37:58;;;;;;;61.33;48.63;;;17.00;62.70;;;;;;4954561;28;90227;-73
2021/12/28 04:40:24;;;;;;;60.40;48.35;;;17.00;62.70;;;;;;4949124;28;89994;-73
2021/12/28 04:42:50;;;;;;;60.28;48.13;;;17.00;62.60;;;;;;4950019;28;90979;-72
2021/12/28 04:45:17;;;;;;;60.85;48.47;;;17.00;62.70;;;;;;4950168;28;90117;-73
2021/12/28 04:47:42;;;;;;;61.53;48.47;;;17.00;62.60;;;;;;4950714;28;91390;-73
2021/12/28 04:50:10;;;;;;;61.13;48.25;;;17.00;62.80;;;;;;4951486;28;89854;-72
2021/12/28 04:52:38;;;;;;;62.38;48.53;;;17.00;62.60;;;;;;4948188;28;92279;-73
2021/12/28 04:55:10;;;;;;;61.35;48.42;;;17.00;62.30;;;;;;4947706;28;91353;-73
2021/12/28 04:57:36;;;;;;;60.50;48.22;;;17.10;62.30;;;;;;4957343;28;90042;-73
2021/12/28 05:00:07;;;;;;;61.28;48.47;;;17.20;62.20;;;;;;4944965;28;90293;-73
2021/12/28 05:02:32;;;;;;;61.20;48.42;;;17.30;62.10;;;;;;4946256;28;90521;-73
2021/12/28 05:04:58;;;;;;;60.95;48.53;;;17.30;62.10;;;;;;4947470;28;94395;-72
2021/12/28 05:07:24;;;;;;;61.72;48.72;;;17.50;62.10;;;;;;4948787;28;90801;-72
2021/12/28 05:09:50;;;;;;;60.95;48.30;;;17.70;61.60;;;;;;4954125;28;89165;-73
2021/12/28 05:12:15;;;;;;;62.25;48.72;;;17.80;61.00;;;;;;4947287;28;92219;-72
2021/12/28 05:14:42;;;;;;;62.40;48.92;;;18.00;60.70;;;;;;4953729;28;89785;-72
2021/12/28 05:17:08;;;;;;;61.22;48.65;;;18.10;60.60;;;;;;4948065;28;90880;-73
2021/12/28 05:19:35;;;;;;;62.25;48.55;;;18.20;60.50;;;;;;4946350;28;91739;-72
2021/12/28 05:22:01;;;;;;;62.63;48.83;;;18.30;60.10;;;;;;4949209;28;94323;-72
2021/12/28 05:24:27;;;;;;;62.70;48.92;;;18.50;59.70;;;;;;4952381;28;89622;-72
2021/12/28 05:26:52;;;;;;;63.17;48.70;;;18.50;59.50;;;;;;4967576;28;90181;-72
2021/12/28 05:29:19;;;;;;;61.75;48.88;;;18.60;59.30;;;;;;4947210;28;90367;-72
2021/12/28 05:31:44;;;;;;;61.45;48.70;;;18.70;59.20;;;;;;4949745;28;96404;-73
2021/12/28 05:34:10;;;;;;;61.72;48.95;;;18.80;59.20;;;;;;4954357;28;89345;-73
2021/12/28 05:36:36;;;;;;;62.88;48.83;;;18.90;58.90;;;;;;4954200;28;89877;-73
2021/12/28 05:39:04;;;;;;;62.78;48.85;;;19.00;58.70;;;;;;4955912;28;89859;-73
2021/12/28 05:41:29;;;;;;;61.92;48.85;;;19.00;58.40;;;;;;4952578;28;92111;-73
2021/12/28 05:43:55;;;;;;;62.22;48.75;;;19.10;58.40;;;;;;4948747;28;91319;-72
2021/12/28 05:46:20;;;;;;;62.05;48.92;;;19.20;58.60;;;;;;4968691;28;89564;-73
2021/12/28 05:48:47;;;;;;;63.08;48.92;;;19.20;58.10;;;;;;4952674;28;90946;-73
2021/12/28 05:51:13;;;;;;;63.05;48.75;;;19.20;57.80;;;;;;4957040;28;90987;-72
2021/12/28 05:53:39;;;;;;;61.90;48.72;;;19.30;57.80;;;;;;4956514;28;90524;-73
2021/12/28 05:56:05;;;;;;;61.90;48.85;;;19.30;57.80;;;;;;4955383;28;89856;-72
2021/12/28 05:58:31;;;;;;;62.10;48.85;;;19.40;57.70;;;;;;4953146;28;88616;-72
2021/12/28 06:00:56;;;;;;;62.42;48.70;;;19.40;57.50;;;;;;4953398;28;90381;-73
2021/12/28 06:03:22;;;;;;;62.28;48.80;;;19.40;57.40;;;;;;4951561;28;94932;-73
2021/12/28 06:05:48;;;;;;;62.10;48.85;;;19.40;57.50;;;;;;4952411;28;91029;-72
2021/12/28 06:08:14;;;;;;;62.63;49.03;;;19.40;57.50;;;;;;4960460;28;90690;-72
2021/12/28 06:10:40;;;;;;;62.38;49.13;;;19.40;57.50;;;;;;4958417;28;89988;-73
2021/12/28 06:13:06;;;;;;;61.78;48.70;;;19.40;57.50;;;;;;4950117;28;91071;-73
2021/12/28 06:15:32;;;;;;;61.88;48.60;;;19.40;57.30;;;;;;4953101;28;89782;-73
2021/12/28 06:17:58;;;;;;;62.28;48.70;;;19.40;57.40;;;;;;4953716;28;89782;-73
2021/12/28 06:20:23;;;;;;;61.30;48.50;;;19.30;57.40;;;;;;4948695;28;89905;-73
2021/12/28 06:22:49;;;;;;;61.47;48.70;;;19.30;57.70;;;;;;4955687;28;90891;-73
2021/12/28 06:25:15;;;;;;;61.70;48.67;;;19.20;57.50;;;;;;4954926;28;90340;-72
2021/12/28 06:27:41;;;;;;;62.00;48.83;;;19.20;57.60;;;;;;4955386;28;89999;-73
2021/12/28 06:30:07;;;;;;;61.65;48.55;;;19.20;57.50;;;;;;4950137;28;92517;-73
2021/12/28 06:32:33;;;;;;;62.10;48.88;;;19.20;57.50;;;;;;4954713;28;90783;-73
2021/12/28 06:34:59;;;;;;;62.58;48.85;;;19.20;57.80;;;;;;4951877;28;91325;-73
2021/12/28 06:37:24;;;;;;;61.63;48.75;;;19.20;57.70;;;;;;4954958;28;90206;-73
2021/12/28 06:39:50;;;;;;;61.42;48.55;;;19.10;57.80;;;;;;4955258;28;89864;-73
2021/12/28 06:42:16;;;;;;;61.95;48.72;;;19.10;57.90;;;;;;4954493;28;94149;-73
2021/12/28 06:44:45;;;;;;;61.95;48.55;;;19.10;58.00;;;;;;4949857;28;90294;-73
2021/12/28 06:47:10;;;;;;;61.55;49.08;;;19.00;57.90;;;;;;4952285;28;89464;-73
2021/12/28 06:49:36;;;;;;;62.05;48.72;;;19.00;58.10;;;;;;4953385;28;90415;-73
2021/12/28 06:52:02;;;;;;;62.67;48.85;;;19.00;58.20;;;;;;4949701;28;90322;-73
2021/12/28 06:54:28;;;;;;;61.35;48.83;;;19.00;58.20;;;;;;4953227;28;90602;-73
2021/12/28 06:56:53;;;;;;;62.35;48.50;;;18.90;58.30;;;;;;4953712;28;90181;-73
2021/12/28 06:59:19;;;;;;;61.45;48.55;;;18.90;59.00;;;;;;4963817;28;90356;-73
2021/12/28 07:01:44;;;;;;;61.60;48.53;;;18.80;58.30;;;;;;4952704;28;90557;-73
2021/12/28 07:04:10;;;;;;;62.95;48.70;;;18.80;58.30;;;;;;4952323;28;89749;-74
2021/12/28 07:06:35;;;;;;;61.30;48.42;;;18.80;58.50;;;;;;4942977;28;91114;-73
2021/12/28 07:09:01;;;;;;;61.97;48.65;;;18.70;58.60;;;;;;4951198;28;91269;-73
2021/12/28 07:11:27;;;;;;;61.22;48.35;;;18.80;58.60;;;;;;4956364;28;89686;-71
2021/12/28 07:13:53;;;;;;;61.65;48.47;;;18.70;58.60;;;;;;4966738;28;90540;-72
2021/12/28 07:16:19;;;;;;;60.75;48.28;;;18.70;58.70;;;;;;4946906;28;92235;-72
2021/12/28 07:18:45;;;;;;;61.88;48.42;;;18.60;58.80;;;;;;4948206;28;92410;-72
2021/12/28 07:21:11;;;;;;;62.42;48.65;;;18.70;58.80;;;;;;4947684;28;90858;-72
2021/12/28 07:23:36;;;;;;;62.00;48.53;;;18.60;58.90;;;;;;4950914;28;89980;-72
2021/12/28 07:26:02;;;;;;;61.13;48.35;;;18.60;59.10;;;;;;4949728;28;90621;-73
2021/12/28 07:28:28;;;;;;;61.45;48.35;;;18.60;59.30;;;;;;4947730;28;91635;-73
2021/12/28 07:30:54;;;;;;;61.42;48.63;;;18.60;59.20;;;;;;4962394;28;94384;-72
2021/12/28 07:33:20;;;;;;;60.90;48.40;;;18.50;59.30;;;;;;4934766;28;91599;-72
2021/12/28 07:35:47;;;;;;;63.47;48.55;;;18.50;59.40;;;;;;4944869;28;90141;-73
2021/12/28 07:38:12;;;;;;;61.47;48.55;;;18.50;59.50;;;;;;4935028;28;90095;-72
2021/12/28 07:40:39;;;;;;;62.35;48.75;;;18.40;59.40;;;;;;4938269;28;89975;-72
2021/12/28 07:43:05;;;;;;;62.75;48.50;;;18.50;60.20;;;;;;4951575;28;90557;-72
2021/12/28 07:45:31;;;;;;;62.08;48.58;;;18.40;59.70;;;;;;4954733;28;90138;-73
2021/12/28 07:47:56;;;;;;;61.35;48.35;;;18.40;59.70;;;;;;4948012;28;91230;-73
2021/12/28 07:50:22;;;;;;;62.25;48.45;;;18.40;59.70;;;;;;4945754;28;90052;-71
2021/12/28 07:52:49;;;;;;;61.72;48.55;;;18.40;59.60;;;;;;4950780;28;90293;-73
2021/12/28 07:55:16;;;;;;;61.90;48.70;;;18.40;59.60;;;;;;4950634;28;91498;-73
2021/12/28 07:57:42;;;;;;;60.88;48.53;;;18.40;59.70;;;;;;4943102;28;91235;-75
2021/12/28 08:00:15;;;;;;;61.50;48.63;;;18.30;59.80;;;;;;4949662;28;90811;-72
2021/12/28 08:02:43;;;;;;;61.47;48.55;;;18.30;59.70;;;;;;4947824;28;96725;-74
2021/12/28 08:05:09;;;;;;;61.88;48.28;;;18.30;59.60;;;;;;4943288;28;91246;-73
2021/12/28 08:07:35;;;;;;;61.60;48.58;;;18.30;59.70;;;;;;4950525;28;91073;-73
2021/12/28 08:10:00;;;;;;;60.97;48.30;;;18.40;59.80;;;;;;4949170;28;90800;-73
2021/12/28 08:12:26;;;;;;;62.15;48.35;;;18.40;59.90;;;;;;4947385;28;90220;-73
2021/12/28 08:14:52;;;;;;;62.47;48.63;;;18.60;59.70;;;;;;4952858;28;90626;-73
2021/12/28 08:17:18;;;;;;;62.47;48.92;;;18.60;59.40;;;;;;4952197;28;89993;-73
2021/12/28 08:19:43;;;;;;;62.35;48.75;;;18.70;59.30;;;;;;4943817;28;90129;-73
2021/12/28 08:22:09;;;;;;;62.10;48.70;;;18.80;59.10;;;;;;4950907;28;89929;-73
2021/12/28 08:24:34;;;;;;;61.88;48.63;;;18.90;59.10;;;;;;4945253;28;88874;-73
2021/12/28 08:27:00;;;;;;;63.17;48.90;;;18.90;59.00;;;;;;4948947;28;90736;-73
2021/12/28 08:29:26;;;;;;;63.55;48.72;;;19.10;58.60;;;;;;4945531;28;89886;-73
2021/12/28 08:31:52;;;;;;;62.22;48.83;;;19.10;58.60;;;;;;4939942;28;91228;-73
2021/12/28 08:34:18;;;;;;;63.33;49.03;;;19.10;58.60;;;;;;4950439;28;90020;-73
2021/12/28 08:36:44;;;;;;;63.00;48.97;;;19.20;58.30;;;;;;4947986;28;89472;-73
2021/12/28 08:39:09;;;;;;;63.65;48.95;;;19.30;58.20;;;;;;4949377;28;90554;-75
2021/12/28 08:41:35;;;;;;;63.88;48.92;;;19.30;58.10;;;;;;4945300;28;90762;-74
2021/12/28 08:44:01;;;;;;;63.72;48.92;;;19.30;58.20;;;;;;4952278;28;89739;-74
2021/12/28 08:46:26;;;;;;;64.20;49.10;;;19.40;57.90;;;;;;4952088;28;92203;-74
2021/12/28 08:48:52;;;;;;;62.55;49.08;;;19.40;57.80;;;;;;4948549;28;89253;-75
2021/12/28 08:51:18;;;;;;;63.13;49.08;;;19.40;57.80;;;;;;4952208;28;89819;-75
2021/12/28 08:53:44;;;;;;;62.88;49.05;;;19.40;57.80;;;;;;4949916;28;91897;-74
2021/12/28 08:56:09;;;;;;;62.95;49.13;;;19.40;57.70;;;;;;4941940;28;92424;-74
2021/12/28 08:58:35;;;;;;;63.10;49.20;;;19.40;57.80;;;;;;4949176;28;90372;-74
2021/12/28 09:01:01;;;;;;;62.75;49.05;;;19.30;57.90;;;;;;4951442;28;93428;-74
2021/12/28 09:03:27;;;;;;;62.45;48.83;;;19.30;57.90;;;;;;4953051;28;89784;-74
2021/12/28 09:05:52;;;;;;;62.58;48.83;;;19.30;57.90;;;;;;4959552;28;92132;-74
2021/12/28 09:08:19;;;;;;;61.60;48.67;;;19.30;57.90;;;;;;4947909;28;90185;-73
2021/12/28 09:10:46;;;;;;;62.38;48.88;;;19.30;57.90;;;;;;4946925;28;90886;-73
2021/12/28 09:13:14;;;;;;;63.78;48.63;;;19.30;58.00;;;;;;4948751;28;92618;-72
2021/12/28 09:15:40;;;;;;;62.35;48.58;;;19.20;58.10;;;;;;4948556;28;90504;-74
2021/12/28 09:18:06;;;;;;;62.30;49.00;;;19.20;58.20;;;;;;4952712;28;90578;-74
2021/12/28 09:20:32;;;;;;;62.05;48.55;;;19.20;58.30;;;;;;4945082;28;91135;-74
2021/12/28 09:22:58;;;;;;;61.45;48.70;;;19.10;58.30;;;;;;4951974;28;91381;-75
2021/12/28 09:25:24;;;;;;;62.88;48.95;;;19.10;58.50;;;;;;4946488;28;90010;-74
2021/12/28 09:27:50;;;;;;;61.72;48.65;;;19.00;58.50;;;;;;4946277;28;89750;-74
2021/12/28 09:30:17;;;;;;;62.40;48.65;;;19.00;58.50;;;;;;4949792;28;89978;-74
2021/12/28 09:32:43;;;;;;;62.17;48.72;;;19.00;58.70;;;;;;4927315;28;91092;-75
2021/12/28 09:35:09;;;;;;;61.50;48.67;;;18.90;58.70;;;;;;4932933;28;90568;-73
2021/12/28 09:37:36;;;;;;;61.58;48.75;;;18.90;58.70;;;;;;4937273;28;89923;-74
2021/12/28 09:40:04;;;;;;;61.72;48.88;;;18.90;58.70;;;;;;4944256;28;90074;-74
2021/12/28 09:42:30;;;;;;;62.10;48.72;;;18.80;58.70;;;;;;4946932;28;95315;-74
2021/12/28 09:44:56;;;;;;;62.45;48.85;;;18.80;58.70;;;;;;4948175;28;90999;-74
2021/12/28 09:47:22;;;;;;;63.60;48.78;;;18.80;58.70;;;;;;4948614;28;91279;-74
2021/12/28 09:49:49;;;;;;;62.38;48.80;;;18.80;58.70;;;;;;4961428;28;91022;-73
2021/12/28 09:52:16;;;;;;;63.25;48.58;;;18.80;59.30;;;;;;4946589;28;90246;-74
2021/12/28 09:54:42;;;;;;;63.90;49.17;;;18.70;58.80;;;;;;4946632;28;92751;-74
2021/12/28 09:57:08;;;;;;;62.75;48.80;;;18.70;58.80;;;;;;4948718;28;89850;-73
2021/12/28 09:59:34;;;;;;;64.90;49.58;;;18.70;58.80;;;;;;4947238;28;91637;-74
2021/12/28 10:02:06;;;;;;;63.08;49.17;;;18.70;58.90;;;;;;4947833;28;89512;-74
2021/12/28 10:04:32;;;;;;;63.17;48.83;;;18.60;58.90;;;;;;4942188;28;90439;-74
2021/12/28 10:07:22;;;;;;;66.78;49.60;;;18.60;59.00;;;;;;4943290;28;89840;-74
2021/12/28 10:09:48;;;;;;;64.53;49.17;;;18.60;59.10;;;;;;4942033;28;90562;-74
2021/12/28 10:12:37;;;;;;;64.10;49.05;;;18.60;58.90;;;;;;4938278;28;89965;-73
2021/12/28 10:15:09;;;;;;;64.82;48.95;;;18.50;59.00;;;;;;4944920;28;95994;-73
2021/12/28 10:17:37;;;;;;;69.15;49.80;;;18.50;59.00;;;;;;4948941;28;90935;-74
2021/12/28 10:20:11;;;;;;;65.28;49.42;;;18.50;59.30;;;;;;4946143;28;89963;-73
2021/12/28 10:22:42;;;;;;;69.57;49.90;;;18.60;59.40;;;;;;4971937;28;91097;-74
2021/12/28 10:25:18;;;;;;;65.40;49.60;;;18.60;59.30;;;;;;4951733;28;90772;-74
2021/12/28 10:27:48;;;;;;;72.63;50.28;;;18.60;59.40;;;;;;4943429;28;92577;-72
2021/12/28 10:30:24;;;;;;;68.97;50.08;;;18.60;60.80;;;;;;4942104;28;90874;-74
2021/12/28 10:32:52;;;;;;;70.38;50.78;;;18.70;60.80;;;;;;4936864;28;90451;-77
2021/12/28 10:35:29;;;;;;;78.68;50.78;;;18.70;61.20;;;;;;4932271;28;91074;-73
2021/12/28 10:38:04;;;;;;;73.50;51.10;;;18.80;62.00;;;;;;4942348;28;94871;-72
2021/12/28 10:40:42;;;;;;;77.55;50.75;;;18.80;61.70;;;;;;4948584;28;90085;-73
2021/12/28 10:43:10;;;;;;;75.78;51.33;;;18.80;61.20;;;;;;4942993;28;90098;-74
2021/12/28 10:46:00;;;;;;;75.32;51.40;;;18.80;61.30;;;;;;4942455;28;91073;-75
2021/12/28 10:48:30;;;;;;;79.93;51.35;;;18.80;60.90;;;;;;4948046;28;90295;-74
2021/12/28 10:51:03;;;;;;;80.70;51.63;;;18.90;61.50;;;;;;4941944;28;90829;-75
2021/12/28 10:56:23;;;;;;;74.28;51.08;;;19.10;61.10;;;;;;4948875;28;90554;-74
2021/12/28 10:58:50;;;;;;;78.72;52.03;;;19.20;60.90;;;;;;4950510;28;90226;-76
2021/12/28 11:01:28;;;;;;;74.20;52.00;;;19.30;60.60;;;;;;4911675;28;94079;-73
2021/12/28 11:03:57;;;;;;;75.47;52.05;;;19.40;60.30;;;;;;4923970;28;91188;-73
2021/12/28 11:06:29;;;;;;;78.80;52.65;;;19.50;59.70;;;;;;4914418;28;96427;-73
2021/12/28 11:09:22;;;;;;;78.78;52.47;;;19.50;60.10;;;;;;4919633;28;92755;-72
2021/12/28 11:12:02;;;;;;;76.78;52.25;;;19.60;59.20;;;;;;5042469;27;83841;-71
2021/12/28 11:14:30;;;;;;;77.03;52.53;;;19.70;59.10;;;;;;5055063;27;90879;-71
2021/12/28 11:17:02;;;;;;;84.15;52.95;;;19.90;58.80;;;;;;5057548;27;86650;-72
2021/12/28 11:19:36;;;;;;;79.13;53.08;;;20.00;58.40;;;;;;5031452;27;88494;-73
2021/12/28 11:22:05;;;;;;;82.28;52.67;;;20.00;57.90;;;;;;5036191;27;87359;-74
2021/12/28 11:24:33;;;;;;;85.75;52.90;;;20.10;58.40;;;;;;5038030;27;92377;-73
2021/12/28 11:27:00;;;;;;;77.15;52.88;;;20.20;58.10;;;;;;5031489;27;85913;-72
2021/12/28 11:29:35;;;;;;;75.32;52.63;;;20.10;57.70;;;;;;5024036;27;87223;-72
2021/12/28 11:32:04;;;;;;;76.22;52.50;;;20.20;57.40;;;;;;5026056;27;85149;-71
2021/12/28 11:34:31;;;;;;;82.30;53.00;;;20.10;57.10;;;;;;5026094;27;85171;-72
2021/12/28 11:37:06;;;;;;;79.47;52.35;;;20.10;57.50;;;;;;5028737;27;85157;-72
2021/12/28 11:39:43;;;;;;;77.85;52.45;;;20.10;57.40;;;;;;5020389;27;88268;-72
2021/12/28 11:42:10;;;;;;;82.25;52.72;;;20.10;57.20;;;;;;5026346;27;86714;-72
2021/12/28 11:44:36;;;;;;;78.15;52.50;;;20.10;57.10;;;;;;5023404;27;86124;-72
2021/12/28 11:47:04;;;;;;;81.10;52.78;;;20.10;57.60;;;;;;5004242;27;87412;-72
2021/12/28 11:49:30;;;;;;;73.95;52.13;;;20.10;57.10;;;;;;5021924;27;85574;-71
2021/12/28 11:52:00;;;;;;;77.18;52.03;;;20.20;56.90;;;;;;5023961;27;85557;-72
2021/12/28 11:54:30;;;;;;;75.70;52.20;;;20.10;56.80;;;;;;5034540;27;86617;-72
2021/12/28 11:57:01;;;;;;;77.55;52.30;;;20.20;56.80;;;;;;5053886;27;85666;-72
2021/12/28 11:59:29;;;;;;;76.65;52.60;;;20.10;56.60;;;;;;4981539;27;86241;-72
2021/12/28 12:01:55;;;;;;;79.75;52.65;;;20.10;56.80;;;;;;5030773;27;88873;-72
2021/12/28 12:04:30;;;;;;;78.95;52.55;;;20.10;56.80;;;;;;5009385;27;87261;-72
2021/12/28 12:07:04;;;;;;;75.50;52.35;;;20.10;56.80;;;;;;5022625;27;86098;-72
2021/12/28 12:09:32;;;;;;;75.63;51.95;;;20.10;56.70;;;;;;5019530;27;86059;-72
2021/12/28 12:12:15;;;;;;;77.90;52.25;;;20.20;56.60;;;;;;5019083;27;86225;-72
2021/12/28 12:14:54;;;;;;;78.75;52.65;;;20.20;56.60;;;;;;5012112;27;87320;-73
2021/12/28 12:17:28;;;;;;;75.90;52.08;;;20.10;56.60;;;;;;4974989;27;86361;-72
2021/12/28 12:20:21;;;;;;;74.78;51.80;;;20.10;56.50;;;;;;5015100;27;85071;-72
2021/12/28 12:22:48;;;;;;;80.20;52.13;;;20.10;56.50;;;;;;4979777;27;92065;-72
2021/12/28 12:25:20;;;;;;;76.70;52.10;;;20.10;56.50;;;;;;4987939;27;86797;-72
2021/12/28 12:27:53;;;;;;;74.45;51.97;;;20.10;56.40;;;;;;4986936;27;87009;-73
2021/12/28 12:30:24;;;;;;;76.80;52.60;;;20.10;56.30;;;;;;4996735;27;86395;-73
2021/12/28 12:33:02;;;;;;;75.38;51.92;;;20.00;56.30;;;;;;4979824;27;86607;-72